createdAt,value
2019-03-23T00:02:07.048Z,103.50
2019-03-23T00:04:44.446Z,115.83
2019-03-23T00:07:22.087Z,108.67
2019-03-23T00:09:59.508Z,111.97
2019-03-23T00:12:36.845Z,115.37
2019-03-23T00:15:14.328Z,118.27
2019-03-23T00:17:51.683Z,109.30
2019-03-23T00:20:30.389Z,104.73
2019-03-23T00:23:07.932Z,116.87
2019-03-23T00:25:45.347Z,110.53
2019-03-23T00:28:22.800Z,114.33
2019-03-23T00:31:00.142Z,115.00
2019-03-23T00:33:37.520Z,118.90
2019-03-23T00:36:14.924Z,118.43
2019-03-23T00:38:52.303Z,118.53
2019-03-23T00:41:29.677Z,119.10
2019-03-23T00:44:07.546Z,118.40
2019-03-23T00:46:45.027Z,118.27
2019-03-23T00:49:22.394Z,114.23
2019-03-23T00:51:59.619Z,103.57
2019-03-23T00:54:36.964Z,112.93
2019-03-23T00:57:14.321Z,115.97
2019-03-23T00:59:51.758Z,116.53
2019-03-23T01:02:29.156Z,119.37
2019-03-23T01:05:07.564Z,119.27
2019-03-23T01:07:44.927Z,115.30
2019-03-23T01:10:22.302Z,106.90
2019-03-23T01:12:59.790Z,110.07
2019-03-23T01:15:37.114Z,106.67
2019-03-23T01:18:14.715Z,104.37
2019-03-23T01:20:52.638Z,109.97
2019-03-23T01:23:29.968Z,94.60
2019-03-23T01:26:07.436Z,94.63
2019-03-23T01:28:44.932Z,96.87
2019-03-23T01:31:22.641Z,97.57
2019-03-23T01:33:59.786Z,96.83
2019-03-23T01:36:37.104Z,93.70
2019-03-23T01:39:14.416Z,91.17
2019-03-23T01:41:51.805Z,86.67
2019-03-23T01:44:29.215Z,105.27
2019-03-23T01:47:06.507Z,99.13
2019-03-23T01:49:43.912Z,87.47
2019-03-23T01:52:21.561Z,96.47
2019-03-23T01:54:59.300Z,98.57
2019-03-23T01:57:36.692Z,100.80
2019-03-23T02:00:14.260Z,102.00
2019-03-23T02:02:51.665Z,101.60
2019-03-23T02:05:29.081Z,94.63
2019-03-23T02:08:06.504Z,95.90
2019-03-23T02:10:43.867Z,99.37
2019-03-23T02:13:21.316Z,97.03
2019-03-23T02:15:58.603Z,96.40
2019-03-23T02:18:36.144Z,100.90
2019-03-23T02:21:13.576Z,107.30
2019-03-23T02:23:52.699Z,102.63
2019-03-23T02:26:33.080Z,99.60
2019-03-23T02:29:10.448Z,97.67
2019-03-23T02:31:47.948Z,112.03
2019-03-23T02:34:25.319Z,98.27
2019-03-23T02:37:02.863Z,104.77
2019-03-23T02:39:40.388Z,102.70
2019-03-23T02:42:17.710Z,109.47
2019-03-23T02:44:55.077Z,105.33
2019-03-23T02:47:32.421Z,109.37
2019-03-23T02:50:10.446Z,102.23
2019-03-23T02:52:47.857Z,96.30
2019-03-23T02:55:25.188Z,96.70
2019-03-23T02:58:02.559Z,94.50
2019-03-23T03:00:39.898Z,102.37
2019-03-23T03:03:17.397Z,106.47
2019-03-23T03:05:54.729Z,111.43
2019-03-23T03:08:32.148Z,111.10
2019-03-23T03:11:09.529Z,110.13
2019-03-23T03:13:47.093Z,112.20
2019-03-23T03:16:24.324Z,107.17
2019-03-23T03:19:01.762Z,103.87
2019-03-23T03:21:39.162Z,99.53
2019-03-23T03:24:16.706Z,113.07
2019-03-23T03:26:54.147Z,105.57
2019-03-23T03:29:31.507Z,110.10
2019-03-23T03:32:08.975Z,95.80
2019-03-23T03:34:46.298Z,101.50
2019-03-23T03:37:23.719Z,89.00
2019-03-23T03:40:01.065Z,120.70
2019-03-23T03:42:38.484Z,125.17
2019-03-23T03:45:25.582Z,207.53
2019-03-23T03:48:03.024Z,178.63
2019-03-23T03:50:41.286Z,114.73
2019-03-23T03:53:20.331Z,110.57
2019-03-23T03:55:57.619Z,96.93
2019-03-23T03:58:35.077Z,101.03
2019-03-23T04:01:12.301Z,104.70
2019-03-23T04:03:49.838Z,109.20
2019-03-23T04:06:27.176Z,100.37
2019-03-23T04:09:06.475Z,100.97
2019-03-23T04:11:43.738Z,105.00
2019-03-23T04:14:21.164Z,98.00
2019-03-23T04:16:59.071Z,101.33
2019-03-23T04:19:36.535Z,90.97
2019-03-23T04:22:14.001Z,128.57
2019-03-23T04:24:51.422Z,111.43
2019-03-23T04:27:28.855Z,89.03
2019-03-23T04:30:07.592Z,144.83
2019-03-23T04:32:44.950Z,112.30
2019-03-23T04:35:22.584Z,86.83
2019-03-23T04:37:59.952Z,79.53
2019-03-23T04:40:37.374Z,77.10
2019-03-23T04:43:14.788Z,98.00
2019-03-23T04:45:52.172Z,104.77
2019-03-23T04:48:29.566Z,85.67
2019-03-23T04:51:07.044Z,115.23
2019-03-23T04:53:44.357Z,111.20
2019-03-23T04:56:21.765Z,102.30
2019-03-23T04:58:59.226Z,101.77
2019-03-23T05:01:36.717Z,138.43
2019-03-23T05:04:14.056Z,97.43
2019-03-23T05:06:51.382Z,109.47
2019-03-23T05:09:28.737Z,110.20
2019-03-23T05:12:06.073Z,94.97
2019-03-23T05:14:43.569Z,162.97
2019-03-23T05:17:27.066Z,154.37
2019-03-23T05:20:09.341Z,105.63
2019-03-23T05:22:46.724Z,114.80
2019-03-23T05:25:26.112Z,108.83
2019-03-23T05:28:04.996Z,136.23
2019-03-23T05:30:42.394Z,106.53
2019-03-23T05:33:19.626Z,102.27
2019-03-23T05:35:56.947Z,99.73
2019-03-23T05:38:43.983Z,100.93
2019-03-23T05:41:13.171Z,86.87
2019-03-23T05:43:50.340Z,83.13
2019-03-23T05:46:27.700Z,90.90
2019-03-23T05:49:04.992Z,89.47
2019-03-23T05:51:42.256Z,113.83
2019-03-23T05:54:19.440Z,107.07
2019-03-23T05:56:56.601Z,101.13
2019-03-23T05:59:33.880Z,113.60
2019-03-23T06:02:11.357Z,118.53
2019-03-23T06:04:49.012Z,124.37
2019-03-23T06:07:26.331Z,128.07
2019-03-23T06:10:05.076Z,141.13
2019-03-23T06:12:42.443Z,135.63
2019-03-23T06:15:19.929Z,133.90
2019-03-23T06:17:57.159Z,147.63
2019-03-23T06:20:34.687Z,144.10
2019-03-23T06:23:11.914Z,157.03
2019-03-23T06:25:49.270Z,187.87
2019-03-23T06:28:26.580Z,161.23
2019-03-23T06:31:03.837Z,181.20
2019-03-23T06:33:41.016Z,204.10
2019-03-23T06:36:18.293Z,178.83
2019-03-23T06:39:05.153Z,187.80
2019-03-23T06:41:34.558Z,177.23
2019-03-23T06:44:11.880Z,189.30
2019-03-23T06:46:49.209Z,200.47
2019-03-23T06:49:26.664Z,211.37
2019-03-23T06:52:03.979Z,204.63
2019-03-23T06:54:41.292Z,226.37
2019-03-23T06:57:18.712Z,223.67
2019-03-23T06:59:55.886Z,222.23
2019-03-23T07:02:33.248Z,194.70
2019-03-23T07:05:10.906Z,199.17
2019-03-23T07:07:48.924Z,204.33
2019-03-23T07:10:27.010Z,191.73
2019-03-23T07:13:05.950Z,175.67
2019-03-23T07:15:43.296Z,191.43
2019-03-23T07:18:20.652Z,176.93
2019-03-23T07:20:57.890Z,182.53
2019-03-23T07:23:35.223Z,173.77
2019-03-23T07:26:12.534Z,166.30
2019-03-23T07:28:49.847Z,160.97
2019-03-23T07:31:27.242Z,153.33
2019-03-23T07:34:06.171Z,138.37
2019-03-23T07:36:43.654Z,136.90
2019-03-23T07:39:27.278Z,134.37
2019-03-23T07:42:00.225Z,129.33
2019-03-23T07:44:37.569Z,124.03
2019-03-23T07:47:15.450Z,121.97
2019-03-23T07:49:52.840Z,108.43
2019-03-23T07:52:30.271Z,104.57
2019-03-23T07:55:12.913Z,101.63
2019-03-23T07:57:50.296Z,91.37
2019-03-23T08:00:31.232Z,96.13
2019-03-23T08:03:10.822Z,95.50
2019-03-23T08:05:48.242Z,94.07
2019-03-23T08:08:25.652Z,93.07
2019-03-23T08:11:03.031Z,89.53
2019-03-23T08:13:40.807Z,91.17
2019-03-23T08:16:18.732Z,90.00
2019-03-23T08:18:56.612Z,93.65
2019-03-23T08:21:34.525Z,84.90
2019-03-23T08:24:12.434Z,87.62
2019-03-23T08:26:50.336Z,84.52
2019-03-23T08:29:28.214Z,90.72
2019-03-23T08:32:06.052Z,86.60
2019-03-23T08:34:43.964Z,84.90
2019-03-23T08:37:21.790Z,85.25
2019-03-23T08:39:59.633Z,87.50
2019-03-23T08:42:37.619Z,87.22
2019-03-23T08:45:15.702Z,81.92
2019-03-23T08:47:53.815Z,85.07
2019-03-23T08:50:31.744Z,81.82
2019-03-23T08:53:09.713Z,84.75
2019-03-23T08:55:47.607Z,82.40
2019-03-23T08:58:30.380Z,80.97
2019-03-23T09:01:08.170Z,89.62
2019-03-23T09:03:52.432Z,83.00
2019-03-23T09:06:25.615Z,75.90
2019-03-23T09:09:04.984Z,82.30
2019-03-23T09:11:42.773Z,80.12
2019-03-23T09:14:20.614Z,83.47
2019-03-23T09:16:58.519Z,81.10
2019-03-23T09:19:36.411Z,85.90
2019-03-23T09:22:18.283Z,86.90
2019-03-23T09:24:57.260Z,85.60
2019-03-23T09:27:35.228Z,79.77
2019-03-23T09:30:13.337Z,83.87
2019-03-23T09:32:51.087Z,80.07
2019-03-23T09:35:29.035Z,78.47
2019-03-23T09:38:06.929Z,79.42
2019-03-23T09:40:44.844Z,78.95
2019-03-23T09:43:22.679Z,78.45
2019-03-23T09:46:00.611Z,79.35
2019-03-23T09:48:38.465Z,78.78
2019-03-23T09:51:16.378Z,73.35
2019-03-23T09:53:54.253Z,78.45
2019-03-23T09:56:32.604Z,77.60
2019-03-23T09:59:10.462Z,75.10
2019-03-23T10:01:48.318Z,82.35
2019-03-23T10:04:26.204Z,76.95
2019-03-23T10:07:03.994Z,78.50
2019-03-23T10:09:41.896Z,78.17
2019-03-23T10:12:19.844Z,74.17
2019-03-23T10:14:57.612Z,70.78
2019-03-23T10:17:35.637Z,70.50
2019-03-23T10:20:13.448Z,71.50
2019-03-23T10:22:51.355Z,70.50
2019-03-23T10:25:29.310Z,66.28
2019-03-23T10:28:07.212Z,67.37
2019-03-23T10:30:45.114Z,71.28
2019-03-23T10:33:33.601Z,66.77
2019-03-23T10:36:12.346Z,68.20
2019-03-23T10:38:50.320Z,72.53
2019-03-23T10:41:28.109Z,67.90
2019-03-23T10:44:06.107Z,64.72
2019-03-23T10:46:43.959Z,63.35
2019-03-23T10:49:24.066Z,70.42
2019-03-23T10:52:03.546Z,67.78
2019-03-23T10:54:41.472Z,60.75
2019-03-23T10:57:19.346Z,65.57
2019-03-23T10:59:57.508Z,67.62
2019-03-23T11:02:36.333Z,56.30
2019-03-23T11:05:17.678Z,55.35
2019-03-23T11:07:58.185Z,55.15
2019-03-23T11:10:42.177Z,58.42
2019-03-23T11:13:21.216Z,56.50
2019-03-23T11:16:12.601Z,51.88
2019-03-23T11:18:53.305Z,47.15
2019-03-23T11:21:31.157Z,54.30
2019-03-23T11:24:09.113Z,48.68
2019-03-23T11:26:46.966Z,53.75
2019-03-23T11:29:27.245Z,53.70
2019-03-23T11:32:05.175Z,46.95
2019-03-23T11:34:43.126Z,54.75
2019-03-23T11:37:21.076Z,56.08
2019-03-23T11:39:59.073Z,50.98
2019-03-23T11:42:37.333Z,48.42
2019-03-23T11:45:15.261Z,42.45
2019-03-23T11:47:53.043Z,45.10
2019-03-23T11:50:30.996Z,39.55
2019-03-23T11:53:08.712Z,40.83
2019-03-23T11:55:46.660Z,39.60
2019-03-23T11:58:24.554Z,42.65
2019-03-23T12:01:02.481Z,42.15
2019-03-23T12:03:40.307Z,41.60
2019-03-23T12:06:18.429Z,44.73
2019-03-23T12:08:56.106Z,40.80
2019-03-23T12:11:34.037Z,48.60
2019-03-23T12:14:11.785Z,42.58
2019-03-23T12:16:49.731Z,39.60
2019-03-23T12:19:27.594Z,39.45
2019-03-23T12:22:06.613Z,40.35
2019-03-23T12:24:44.520Z,33.92
2019-03-23T12:27:24.683Z,29.60
2019-03-23T12:30:07.004Z,26.17
2019-03-23T12:32:41.429Z,28.02
2019-03-23T12:35:19.276Z,25.60
2019-03-23T12:37:57.212Z,24.80
2019-03-23T12:40:36.487Z,17.48
2019-03-23T12:43:14.625Z,18.70
2019-03-23T12:45:52.525Z,16.05
2019-03-23T12:48:30.349Z,20.05
2019-03-23T12:51:08.282Z,21.68
2019-03-23T12:53:46.161Z,24.00
2019-03-23T12:56:24.104Z,21.73
2019-03-23T12:59:01.994Z,20.85
2019-03-23T13:01:39.854Z,22.37
2019-03-23T13:04:17.719Z,20.48
2019-03-23T13:06:55.516Z,19.17
2019-03-23T13:09:33.347Z,21.23
2019-03-23T13:12:11.257Z,21.35
2019-03-23T13:14:49.085Z,21.05
2019-03-23T13:17:26.884Z,21.48
2019-03-23T13:20:05.440Z,21.25
2019-03-23T13:22:43.374Z,33.40
2019-03-23T13:25:20.985Z,26.68
2019-03-23T13:27:58.843Z,23.87
2019-03-23T13:30:36.705Z,24.35
2019-03-23T13:33:14.487Z,23.55
2019-03-23T13:35:52.398Z,22.45
2019-03-23T13:38:30.360Z,21.33
2019-03-23T13:41:08.300Z,20.12
2019-03-23T13:43:46.378Z,19.05
2019-03-23T13:46:24.155Z,21.10
2019-03-23T13:49:02.019Z,18.87
2019-03-23T13:51:39.781Z,18.02
2019-03-23T13:54:17.710Z,22.50
2019-03-23T13:56:55.531Z,22.75
2019-03-23T13:59:33.482Z,21.42
2019-03-23T14:02:11.379Z,23.20
2019-03-23T14:04:50.292Z,23.38
2019-03-23T14:07:28.263Z,22.02
2019-03-23T14:10:06.242Z,24.18
2019-03-23T14:12:44.150Z,23.52
2019-03-23T14:15:22.072Z,22.22
2019-03-23T14:17:59.963Z,25.15
2019-03-23T14:20:38.816Z,21.55
2019-03-23T14:23:16.688Z,19.57
2019-03-23T14:25:54.683Z,27.60
2019-03-23T14:28:32.585Z,20.72
2019-03-23T14:31:10.571Z,19.62
2019-03-23T14:33:48.739Z,22.90
2019-03-23T14:36:27.929Z,24.55
2019-03-23T14:39:07.625Z,21.42
2019-03-23T14:41:46.353Z,18.00
2019-03-23T14:44:24.191Z,19.52
2019-03-23T14:47:03.088Z,21.20
2019-03-23T14:49:40.921Z,23.07
2019-03-23T14:52:18.837Z,19.07
2019-03-23T14:54:56.708Z,19.23
2019-03-23T14:57:34.590Z,18.25
2019-03-23T15:00:12.882Z,18.45
2019-03-23T15:02:50.833Z,21.93
2019-03-23T15:05:28.796Z,30.92
2019-03-23T15:08:10.039Z,19.15
2019-03-23T15:10:53.208Z,19.52
2019-03-23T15:13:31.153Z,19.25
2019-03-23T15:16:09.136Z,22.42
2019-03-23T15:18:47.049Z,25.02
2019-03-23T15:21:24.957Z,25.72
2019-03-23T15:24:02.844Z,20.45
2019-03-23T15:26:40.731Z,19.55
2019-03-23T15:29:18.610Z,21.17
2019-03-23T15:31:56.488Z,25.90
2019-03-23T15:34:34.175Z,21.15
2019-03-23T15:39:53.672Z,19.40
2019-03-23T15:42:31.636Z,20.55
2019-03-23T15:45:09.964Z,23.45
2019-03-23T15:47:48.055Z,22.58
2019-03-23T15:50:26.032Z,21.80
2019-03-23T15:53:04.102Z,25.62
2019-03-23T15:55:41.997Z,28.87
2019-03-23T15:58:19.785Z,25.97
2019-03-23T16:00:57.950Z,25.95
2019-03-23T16:03:35.829Z,26.97
2019-03-23T16:06:13.629Z,24.70
2019-03-23T16:08:51.169Z,27.77
2019-03-23T16:11:29.048Z,28.67
2019-03-23T16:14:06.950Z,28.15
2019-03-23T16:16:44.909Z,32.75
2019-03-23T16:19:22.767Z,27.77
2019-03-23T16:22:00.664Z,27.58
2019-03-23T16:24:38.602Z,30.45
2019-03-23T16:27:16.484Z,31.05
2019-03-23T16:29:54.405Z,30.27
2019-03-23T16:32:32.157Z,29.82
2019-03-23T16:35:10.092Z,33.85
2019-03-23T16:37:48.176Z,34.58
2019-03-23T16:40:26.520Z,33.55
2019-03-23T16:43:06.267Z,31.57
2019-03-23T16:45:46.459Z,52.43
2019-03-23T16:48:24.432Z,39.35
2019-03-23T16:51:09.851Z,35.10
2019-03-23T16:53:47.706Z,38.42
2019-03-23T16:56:25.686Z,50.05
2019-03-23T16:59:03.543Z,41.35
2019-03-23T17:01:41.464Z,46.68
2019-03-23T17:04:19.769Z,47.95
2019-03-23T17:06:57.698Z,52.23
2019-03-23T17:09:35.488Z,134.67
2019-03-23T17:12:13.416Z,111.25
2019-03-23T17:14:51.231Z,69.32
2019-03-23T17:17:29.165Z,56.73
2019-03-23T17:20:06.960Z,61.88
2019-03-23T17:22:44.845Z,84.45
2019-03-23T17:25:22.765Z,91.17
2019-03-23T17:28:00.758Z,92.10
2019-03-23T17:30:38.762Z,90.87
2019-03-23T17:33:17.142Z,84.37
2019-03-23T17:35:58.663Z,84.15
2019-03-23T17:38:36.550Z,80.07
2019-03-23T17:41:14.519Z,83.05
2019-03-23T17:43:52.462Z,93.30
2019-03-23T17:46:30.364Z,101.85
2019-03-23T17:49:08.329Z,91.75
2019-03-23T17:51:46.244Z,87.75
2019-03-23T17:54:24.169Z,79.65
2019-03-23T17:57:02.093Z,68.50
2019-03-23T17:59:39.997Z,76.07
2019-03-23T18:02:17.318Z,93.63
2019-03-23T18:04:55.261Z,111.05
2019-03-23T18:07:33.129Z,115.45
2019-03-23T18:10:11.135Z,113.08
2019-03-23T18:12:48.493Z,107.30
2019-03-23T18:15:28.730Z,103.40
2019-03-23T18:18:06.598Z,103.58
2019-03-23T18:20:43.967Z,96.08
2019-03-23T18:23:21.403Z,108.17
2019-03-23T18:25:58.754Z,106.43
2019-03-23T18:28:36.925Z,122.62
2019-03-23T18:31:14.293Z,120.87
2019-03-23T18:33:51.611Z,122.70
2019-03-23T18:36:29.129Z,124.53
2019-03-23T18:39:06.428Z,158.13
2019-03-23T18:41:43.717Z,139.37
2019-03-23T18:44:21.063Z,142.17
2019-03-23T18:46:58.478Z,118.57
2019-03-23T18:49:35.690Z,136.40
2019-03-23T18:52:13.038Z,123.23
2019-03-23T18:54:50.442Z,121.90
2019-03-23T18:57:29.453Z,112.57
2019-03-23T19:00:07.555Z,109.13
2019-03-23T19:02:44.940Z,122.77
2019-03-23T19:05:23.881Z,133.87
2019-03-23T19:08:01.217Z,111.93
2019-03-23T19:10:38.539Z,112.20
2019-03-23T19:13:15.763Z,118.67
2019-03-23T19:15:53.063Z,134.57
2019-03-23T19:18:30.397Z,135.10
2019-03-23T19:21:10.340Z,130.63
2019-03-23T19:23:47.671Z,132.33
2019-03-23T19:26:25.009Z,138.83
2019-03-23T19:29:02.368Z,98.37
2019-03-23T19:31:39.649Z,89.93
2019-03-23T19:34:16.999Z,54.07
2019-03-23T19:36:54.219Z,47.03
2019-03-23T19:39:31.800Z,61.83
2019-03-23T19:42:16.133Z,58.40
2019-03-23T19:44:53.485Z,63.30
2019-03-23T19:47:30.848Z,71.50
2019-03-23T19:50:09.741Z,71.23
2019-03-23T19:52:50.818Z,79.13
2019-03-23T19:55:28.119Z,77.17
2019-03-23T19:58:05.465Z,82.60
2019-03-23T20:00:43.909Z,84.13
2019-03-23T20:03:21.163Z,90.13
2019-03-23T20:05:58.659Z,94.00
2019-03-23T20:08:36.226Z,87.03
2019-03-23T20:11:13.637Z,94.90
2019-03-23T20:13:58.488Z,96.20
2019-03-23T20:16:30.042Z,97.00
2019-03-23T20:19:07.418Z,99.63
2019-03-23T20:21:44.998Z,117.93
2019-03-23T20:24:22.564Z,112.40
2019-03-23T20:27:00.029Z,104.70
2019-03-23T20:29:37.354Z,81.07
2019-03-23T20:32:14.641Z,69.37
2019-03-23T20:34:52.009Z,67.20
2019-03-23T20:37:29.323Z,82.90
2019-03-23T20:40:07.170Z,85.20
2019-03-23T20:42:44.537Z,79.90
2019-03-23T20:45:27.093Z,83.83
2019-03-23T20:48:04.442Z,94.83
2019-03-23T20:50:41.871Z,93.73
2019-03-23T20:53:19.243Z,87.23
2019-03-23T20:55:56.472Z,85.87
2019-03-23T20:58:33.724Z,93.63
2019-03-23T21:01:11.065Z,88.67
2019-03-23T21:03:52.185Z,89.13
2019-03-23T21:06:29.497Z,96.87
2019-03-23T21:09:07.628Z,96.97
2019-03-23T21:11:44.960Z,101.97
2019-03-23T21:14:22.373Z,100.23
2019-03-23T21:16:59.793Z,98.13
2019-03-23T21:19:38.171Z,89.80
2019-03-23T21:22:15.546Z,102.90
2019-03-23T21:24:52.896Z,97.87
2019-03-23T21:27:30.084Z,99.07
2019-03-23T21:30:13.283Z,81.93
2019-03-23T21:32:50.574Z,92.87
2019-03-23T21:35:28.008Z,91.53
2019-03-23T21:38:05.300Z,93.30
2019-03-23T21:40:42.663Z,86.90
2019-03-23T21:43:19.993Z,85.17
2019-03-23T21:45:57.278Z,93.33
2019-03-23T21:48:35.938Z,91.53
2019-03-23T21:51:13.157Z,77.53
2019-03-23T21:53:50.473Z,87.47
2019-03-23T21:56:27.819Z,86.90
2019-03-23T21:59:05.094Z,85.10
2019-03-23T22:01:42.383Z,84.80
2019-03-23T22:04:19.707Z,79.57
2019-03-23T22:06:57.359Z,82.57
2019-03-23T22:09:34.956Z,80.17
2019-03-23T22:12:12.809Z,81.37
2019-03-23T22:14:50.198Z,77.00
2019-03-23T22:17:27.612Z,72.93
2019-03-23T22:20:08.261Z,74.47
2019-03-23T22:22:45.548Z,70.20
2019-03-23T22:25:22.805Z,70.20
2019-03-23T22:28:00.165Z,69.50
2019-03-23T22:30:37.508Z,69.57
2019-03-23T22:33:14.950Z,69.90
2019-03-23T22:35:52.276Z,67.00
2019-03-23T22:38:29.763Z,77.17
2019-03-23T22:41:07.082Z,63.30
2019-03-23T22:43:44.461Z,64.23
2019-03-23T22:46:21.796Z,65.40
2019-03-23T22:48:58.980Z,68.50
2019-03-23T22:51:36.248Z,66.13
2019-03-23T22:54:13.619Z,67.60
2019-03-23T22:56:50.812Z,63.30
2019-03-23T22:59:28.077Z,70.37
2019-03-23T23:02:05.491Z,68.13
2019-03-23T23:04:42.875Z,63.67
2019-03-23T23:07:21.112Z,64.57
2019-03-23T23:09:58.284Z,63.93
2019-03-23T23:12:35.644Z,64.40
2019-03-23T23:15:12.937Z,70.70
2019-03-23T23:17:50.293Z,75.83
2019-03-23T23:20:27.603Z,71.97
2019-03-23T23:23:05.234Z,72.00
2019-03-23T23:25:43.136Z,77.37
2019-03-23T23:28:20.500Z,74.53
2019-03-23T23:30:57.713Z,67.53
2019-03-23T23:33:35.039Z,72.10
2019-03-23T23:36:12.338Z,74.30
2019-03-23T23:38:49.770Z,73.67
2019-03-23T23:41:26.969Z,76.40
2019-03-23T23:44:04.567Z,71.23
2019-03-23T23:46:41.841Z,77.57
2019-03-23T23:49:19.171Z,74.27
2019-03-23T23:51:56.416Z,71.07
2019-03-23T23:54:33.777Z,74.40
2019-03-23T23:57:11.057Z,75.93
2019-03-23T23:59:48.307Z,80.37
